Huvudsida
METAR-TAF:

METAR-TAF

Flygplatser :

Sabzevar Airport

Sabzevar, Iran

latitud: 36-13N, longitud: 057-40E, höjd: 941 m

Aktuellt väderrapport

Denna rapport gjordes för 12 timmar och 19 minuter sedan, klockan 16:00 UTC
Vind 6 kt från nord
Temperatur 8°C
Fuktighet 87%
Tryck 1021 hPa
Sikt 10 km eller mer
Spridda moln på en höjd av 3500 ft
Brutna moln på en höjd av 10000 ft

METAR: OIMS 191600Z 01006KT 9999 SCT035 BKN100 08/06 Q1021

Tid: 07:49 (04:19 UTC)


TAF: saknas

Aktuella väderrapporter och prognoser från 4000 flygplatser (METAR- och TAF-rapporter).

De tillgängliga stationerna syns som gula och röda prickar på kartan.

För musen över prickarna för att se namnen på stationerna.

Klicka sedan för att få väderrapporter och prognoser.

För att ändra kartan: Klicka på de gröna knapparna med ett svart kors på för att zooma in; den gröna knappen med ett streck på för att zooma ut; eller på de gröna pilarna för angränsande kartor.


METAR-TAF: